Thunder radar more information blitzortung!


Radar de pluja more information rain snow radar


Visita la nostra xarxa de llocs de meteo:

Template documentation
and downloads

And another site



No particular awareness of the weather is required.    There are no Weather-warnings

Pagina Historial Weather Underground text

Diari Resum Abril 23, 2016 Unitats:  Mètric    Imperial   Tant
« Previous Dia
SegĂźent Dia »
Diari Setmana Mensual Anual Personalitzada
  Maxima: Minima: Media:
Temperatura: -17.8 °C -13.2 °C -9.6 °C
Punt de rosada: -17.8 °C -14.9 °C -13.2 °C
Humitat: Humidity % 44 % 67 %
Wind Speed: 0 km/h 0 km/h 9.7 km/h
RĂ fegues de vent: 0 km/h - -
Vent:- - SSE
Pression baro: 0 hPa 34198.6 hPa -
Precipitacions: 33.02 mm    
Historical Graphs
 
 
Dades de taula per Abril 23, 2016
Temps Temperatura Punt de rosada Pression baro Vent Wind Speed RĂ fegues de vent Humitat Rainfall Rate (Hourly)
-17.8 °C -17.8 °C 0 hPa Calm     Humidity % 0 mm
00:00 -10.2 °C -12.7 °C 34462.7 hPa West 3.1 km/h   75 % 0 mm
00:05 -10.2 °C -12.7 °C 34462.7 hPa West 3.1 km/h 3.1 km/h 75 % 0 mm
00:10 -10.3 °C -12.7 °C 34462.7 hPa Calm     75 % 0 mm
00:15 -10.4 °C -12.7 °C 34462.7 hPa Calm     76 % 0 mm
00:20 -10.4 °C -12.7 °C 34462.7 hPa Calm     76 % 0 mm
00:25 -10.5 °C -12.8 °C 34462.7 hPa Calm   5.1 km/h 76 % 0 mm
00:30 -10.6 °C -12.8 °C 34462.7 hPa Calm   5.1 km/h 76 % 0 mm
00:35 -11.7 °C -13.6 °C 34361.1 hPa Calm   2.6 km/h 80 % 0 mm
00:45 -11.8 °C -13.7 °C 34361.1 hPa Calm   5.1 km/h 80 % 0 mm
00:55 -11.9 °C -13.7 °C 34361.1 hPa Calm   2.6 km/h 80 % 0 mm
01:05 -11.9 °C -13.7 °C 34361.1 hPa Calm     80 % 0 mm
01:15 -11.9 °C -13.8 °C 34361.1 hPa Calm     80 % 0 mm
01:25 -12.2 °C -13.9 °C 34361.1 hPa Calm   5.1 km/h 81 % 0 mm
01:35 -12.3 °C -14.1 °C 34395 hPa SSE 2.6 km/h 5.1 km/h 80 % 0 mm
01:45 -12.3 °C -14 °C 34395 hPa Calm   2.6 km/h 81 % 0 mm
01:55 -12.2 °C -13.9 °C 34395 hPa West 2.6 km/h 2.6 km/h 81 % 0 mm
02:05 -12.2 °C -13.9 °C 34395 hPa Calm     81 % 0 mm
02:15 -12.2 °C -13.9 °C 34395 hPa NNE 5.1 km/h 5.1 km/h 81 % 0 mm
02:25 -12.2 °C -13.9 °C 34395 hPa Calm   2.6 km/h 81 % 0 mm
02:35 -12 °C -13.7 °C 34395 hPa NNE 5.1 km/h 5.1 km/h 81 % 0 mm
02:45 -11.9 °C -13.7 °C 34395 hPa NE 2.6 km/h 7.7 km/h 80 % 0 mm
02:55 -11.7 °C -13.6 °C 34395 hPa NE 2.6 km/h 5.1 km/h 80 % 0 mm
03:05 -11.6 °C -13.6 °C 34361.1 hPa NE 7.7 km/h 7.7 km/h 79 % 0 mm
03:15 -11.5 °C -13.4 °C 34428.8 hPa NE 7.7 km/h 10.3 km/h 79 % 0 mm
03:25 -11.3 °C -13.3 °C 34428.8 hPa NE 7.7 km/h 10.3 km/h 79 % 0 mm
03:35 -11.2 °C -13.3 °C 34395 hPa NE 5.1 km/h 10.3 km/h 78 % 0 mm
03:45 -11.1 °C -13.2 °C 34395 hPa ENE 7.7 km/h 10.3 km/h 78 % 0 mm
03:55 -10.9 °C -13.1 °C 34395 hPa ENE 2.6 km/h 10.3 km/h 77 % 0 mm
04:05 -10.8 °C -13.1 °C 34395 hPa NE 7.7 km/h 10.3 km/h 76 % 0 mm
04:15 -10.4 °C -12.7 °C 34395 hPa NE 5.1 km/h 5.1 km/h 76 % 0 mm
04:25 -10.2 °C -12.7 °C 34395 hPa NNE 2.6 km/h 7.7 km/h 75 % 0 mm
04:35 -10.4 °C -12.9 °C 34395 hPa NW 5.1 km/h 7.7 km/h 74 % 0 mm
04:45 -10.4 °C -12.9 °C 34361.1 hPa WSW 2.6 km/h 5.1 km/h 74 % 0 mm
04:50 -10.1 °C -12.7 °C 34361.1 hPa SW 2.6 km/h 5.1 km/h 74 % 0 mm
05:00 -9.7 °C -12.6 °C 34361.1 hPa SSE 5.1 km/h 7.7 km/h 71 % 0 mm
05:10 -9.4 °C -12.3 °C 34395 hPa SSE 2.6 km/h 7.7 km/h 71 % 0 mm
10:18 -9.6 °C -12.6 °C 34395 hPa SSW 6 km/h   70 % 0 mm
10:23 -9.6 °C -12.6 °C 34395 hPa WSW 9 km/h 9 km/h 70 % 0 mm
10:28 -9.4 °C -12.4 °C 34395 hPa SW 6 km/h 6 km/h 70 % 0 mm
10:33 -9.1 °C -12.1 °C 34395 hPa NNW 6 km/h 6.3 km/h 70 % 0 mm
10:38 -9 °C -12.2 °C 34395 hPa South 6 km/h 6 km/h 69 % 0 mm
10:43 -9.1 °C -12.2 °C 34395 hPa West 9 km/h 9 km/h 69 % 0 mm
10:48 -9.2 °C -12.3 °C 34395 hPa WSW 11.9 km/h 11.9 km/h 69 % 0 mm
10:53 -8.8 °C -12.1 °C 34395 hPa East 9 km/h 9 km/h 68 % 0 mm
10:58 -8.7 °C -12 °C 34395 hPa NE 7.6 km/h 7.6 km/h 68 % 0 mm
11:03 -8.6 °C -11.9 °C 34395 hPa NNE 9 km/h 9 km/h 68 % 0 mm
11:08 -8.5 °C -11.8 °C 34395 hPa NNE 9 km/h 9 km/h 68 % 0 mm
11:13 -8.6 °C -12.1 °C 34395 hPa ENE 6 km/h 6 km/h 67 % 0 mm
11:18 -8.6 °C -12.1 °C 34395 hPa NW 6 km/h 6 km/h 67 % 0 mm
11:23 -8.4 °C -11.8 °C 34395 hPa NNE 9 km/h 9 km/h 67 % 0 mm
11:28 -8.4 °C -12 °C 34395 hPa ENE 9 km/h 9 km/h 66 % 0 mm
11:33 -8.6 °C -12.1 °C 34395 hPa ENE 9.3 km/h 9.3 km/h 66 % 0 mm
11:38 -8.5 °C -12.1 °C 34395 hPa ENE 9.3 km/h 9.3 km/h 66 % 0 mm
11:43 -8.3 °C -12 °C 34361.1 hPa South 6 km/h 6 km/h 65 % 0 mm
11:49 -8.1 °C -11.9 °C 34361.1 hPa East 9 km/h 9 km/h 64 % 0 mm
11:54 -8.1 °C -11.9 °C 34361.1 hPa ENE 8 km/h 8 km/h 64 % 0 mm
11:59 -7.9 °C -11.8 °C 34361.1 hPa NNW 6 km/h 6 km/h 64 % 0 mm
12:04 -7.8 °C -11.6 °C 34361.1 hPa ESE 15 km/h 15 km/h 64 % 0 mm
12:14 -7.8 °C -11.8 °C 34361.1 hPa SE 6 km/h 6 km/h 63 % 0 mm
12:19 -7.6 °C -11.4 °C 34361.1 hPa SSW 11.9 km/h 11.9 km/h 64 % 0 mm
12:24 -7.2 °C -11.3 °C 34361.1 hPa SSW 9 km/h 9 km/h 62 % 0 mm
12:29 -7.4 °C -11.6 °C 34361.1 hPa East 6.8 km/h 6.8 km/h 62 % 0 mm
12:30 -5.6 °C -12.7 °C 34222.3 hPa SW 15.6 km/h 15.6 km/h 44 % 0 mm
12:34 -7.5 °C -11.6 °C 34361.1 hPa North 6 km/h 6.3 km/h 62 % 0 mm
12:39 -7.2 °C -11.5 °C 34361.1 hPa East 15 km/h 15 km/h 61 % 0 mm
12:44 -7.3 °C -11.6 °C 34327.3 hPa NE 11.9 km/h 11.9 km/h 61 % 0 mm
12:54 -7.2 °C -11.7 °C 34327.3 hPa ESE 10.3 km/h 10.3 km/h 59 % 0 mm
12:59 -7.1 °C -11.7 °C 34327.3 hPa WNW 9 km/h 9 km/h 59 % 0 mm
13:04 -7.1 °C -11.8 °C 34327.3 hPa SW 11.9 km/h 11.9 km/h 58 % 0 mm
13:09 -7.1 °C -12.1 °C 34327.3 hPa East 17.9 km/h 17.9 km/h 56 % 0 mm
13:14 -6.9 °C -12.1 °C 34327.3 hPa SSE 11.9 km/h 11.9 km/h 55 % 0 mm
13:24 -6.7 °C -11.9 °C 34327.3 hPa ENE 9 km/h 9 km/h 55 % 0 mm
13:29 -6.4 °C -11.6 °C 34327.3 hPa NE 12.2 km/h 12.2 km/h 55 % 0 mm
13:34 -6.5 °C -11.8 °C 34327.3 hPa SW 11.9 km/h 11.9 km/h 54 % 0 mm
13:39 -6.4 °C -11.8 °C 34327.3 hPa SW 3.7 km/h 3.7 km/h 54 % 0 mm
13:44 -6.4 °C -11.8 °C 34327.3 hPa WSW 17.9 km/h 17.9 km/h 54 % 0 mm
13:49 -6.3 °C -11.8 °C 34327.3 hPa SSW 9.8 km/h 9.8 km/h 53 % 0 mm
13:54 -6.3 °C -11.9 °C 34327.3 hPa South 11.9 km/h 11.9 km/h 52 % 0 mm
13:59 -6.3 °C -11.9 °C 34327.3 hPa SW 11.9 km/h 11.9 km/h 52 % 0 mm
14:04 -6.4 °C -12.1 °C 34327.3 hPa WSW 10.3 km/h 10.3 km/h 52 % 0 mm
14:09 -6.2 °C -11.8 °C 34327.3 hPa WSW 6.8 km/h 6.8 km/h 52 % 0 mm
14:14 -6 °C -12.1 °C 34327.3 hPa SW 9 km/h 9 km/h 50 % 0 mm
14:19 -5.7 °C -11.7 °C 34327.3 hPa SSW 23.8 km/h 23.8 km/h 50 % 0 mm
14:24 -5.8 °C -12.1 °C 34327.3 hPa SW 17.9 km/h 17.9 km/h 49 % 0 mm
14:34 -5.8 °C -12 °C 34293.4 hPa SW 17.9 km/h 17.9 km/h 49 % 0 mm
14:39 -5.6 °C -11.8 °C 34293.4 hPa SSW 6 km/h 6 km/h 49 % 0 mm
14:59 -5.6 °C -11.8 °C 34256.2 hPa SSW 9.3 km/h 9.3 km/h 49 % 0 mm
15:04 -5.7 °C -11.9 °C 34256.2 hPa WSW 9 km/h 9 km/h 49 % 0 mm
15:09 -5.6 °C -11.8 °C 34256.2 hPa WSW 15 km/h 15 km/h 49 % 0 mm
15:14 -5.8 °C -12.2 °C 34256.2 hPa SSW 11.9 km/h 11.9 km/h 48 % 0 mm
15:19 -5.6 °C -11.8 °C 34256.2 hPa SSW 9 km/h 9 km/h 49 % 0 mm
15:24 -5.5 °C -11.7 °C 34256.2 hPa WSW 3.1 km/h 3.1 km/h 49 % 0 mm
15:29 -5.6 °C -11.8 °C 34222.3 hPa SW 3.1 km/h 3.1 km/h 49 % 0 mm
15:34 -5.9 °C -12.1 °C 34222.3 hPa SW 9.3 km/h 9.3 km/h 49 % 0 mm
15:39 -6.1 °C -12.3 °C 34222.3 hPa SW 9 km/h 9 km/h 49 % 0 mm
15:44 -6.3 °C -12.3 °C 34256.2 hPa West 9 km/h 9 km/h 50 % 0 mm
15:49 -6.3 °C -12.3 °C 34256.2 hPa SW 20.9 km/h 20.9 km/h 50 % 0 mm
15:54 -6.1 °C -12.4 °C 34256.2 hPa SW 20.9 km/h 20.9 km/h 48 % 0 mm
15:59 -6.1 °C -12.4 °C 34256.2 hPa SSE 15 km/h 15 km/h 48 % 0 mm
16:04 -5.8 °C -12.2 °C 34256.2 hPa SSW 20.9 km/h 20.9 km/h 48 % 0 mm
16:14 -5.7 °C -12.2 °C 34222.3 hPa SW 15 km/h 15 km/h 47 % 0 mm
16:19 -5.8 °C -12.5 °C 34222.3 hPa SW 20.9 km/h 20.9 km/h 46 % 0 mm
16:24 -5.5 °C -12.3 °C 34222.3 hPa SSW 20.9 km/h 20.9 km/h 46 % 0 mm
16:29 -5.6 °C -12.3 °C 34222.3 hPa SW 11.9 km/h 11.9 km/h 46 % 0 mm
16:34 -5.2 °C -12 °C 34222.3 hPa WSW 20.9 km/h 20.9 km/h 46 % 0 mm
16:39 -5.2 °C -12.2 °C 34222.3 hPa SSE 15 km/h 15 km/h 45 % 0 mm
16:44 -5.2 °C -12.2 °C 34222.3 hPa SW 11.9 km/h 11.9 km/h 45 % 0 mm
16:49 -5.2 °C -12.4 °C 34222.3 hPa West 18.3 km/h 18.3 km/h 44 % 0 mm
16:54 -5.3 °C -12.3 °C 34222.3 hPa SW 20.9 km/h 20.9 km/h 45 % 0 mm
16:59 -5.4 °C -12.6 °C 34222.3 hPa SSW 15 km/h 15 km/h 44 % 0 mm
17:04 -5.3 °C -12.3 °C 34222.3 hPa WSW 11.9 km/h 11.9 km/h 45 % 0 mm
17:09 -5.3 °C -12.3 °C 34222.3 hPa SSW 16.1 km/h 16.1 km/h 45 % 0 mm
17:14 -5.3 °C -12.3 °C 34198.6 hPa WNW 17.9 km/h 17.9 km/h 45 % 0 mm
17:19 -5.3 °C -12.3 °C 34198.6 hPa SSW 16.1 km/h 16.1 km/h 45 % 0 mm
17:31 -5.4 °C -12.4 °C 34222.3 hPa SW 15 km/h 15 km/h 45 % 0 mm
17:36 -5.6 °C -12.7 °C 34222.3 hPa NNW 11.9 km/h 11.9 km/h 44 % 0 mm
17:41 -5.6 °C -12.5 °C 34222.3 hPa East 15.6 km/h 15.6 km/h 45 % 0 mm
17:46 -6.2 °C -12.9 °C 34256.2 hPa NNE 15.3 km/h 15.3 km/h 46 % 0 mm
17:51 -6.6 °C -13.1 °C 34256.2 hPa East 29.8 km/h 29.8 km/h 47 % 0 mm
17:56 -7.1 °C -13.3 °C 34256.2 hPa East 26.9 km/h 26.9 km/h 48 % 0 mm
18:01 -7.8 °C -13.7 °C 34256.2 hPa ENE 38.8 km/h 38.8 km/h 50 % 0 mm
18:06 -8.2 °C -13.7 °C 34256.2 hPa East 29.8 km/h 29.8 km/h 52 % 0 mm
18:11 -8.6 °C -13.5 °C 34256.2 hPa NNE 38.8 km/h 38.8 km/h 56 % 0 mm
18:16 -8.9 °C -13.2 °C 34256.2 hPa ENE 29.8 km/h 29.8 km/h 60 % 0 mm
18:21 -9.3 °C -13.5 °C 34256.2 hPa East 26.9 km/h 26.9 km/h 61 % 0 mm
18:26 -9.4 °C -13.7 °C 34256.2 hPa ENE 25.4 km/h 25.4 km/h 60 % 0 mm
18:31 -9.6 °C -14 °C 34293.4 hPa NNE 23.8 km/h 23.8 km/h 59 % 0 mm
18:36 -9.8 °C -14.1 °C 34293.4 hPa East 26.9 km/h 26.9 km/h 60 % 0 mm
18:41 -10 °C -14.1 °C 34293.4 hPa NNE 20.9 km/h 20.9 km/h 61 % 0 mm
18:46 -10.1 °C -14.2 °C 34327.3 hPa NNE 26.9 km/h 26.9 km/h 61 % 0 mm
18:51 -10.3 °C -14.2 °C 34327.3 hPa ENE 32.8 km/h 32.8 km/h 63 % 0 mm
18:56 -10.3 °C -14.3 °C 34327.3 hPa ESE 26.9 km/h 26.9 km/h 62 % 0 mm
19:01 -10.2 °C -14.1 °C 34327.3 hPa ENE 20.9 km/h 20.9 km/h 62 % 0 mm
19:06 -10.4 °C -14.2 °C 34327.3 hPa NNE 29.8 km/h 29.8 km/h 63 % 0 mm
19:11 -10.5 °C -14.2 °C 34327.3 hPa North 23.8 km/h 23.8 km/h 64 % 0 mm
19:16 -10.7 °C -14.2 °C 34327.3 hPa NE 15 km/h 15 km/h 65 % 0 mm
19:21 -10.7 °C -14.3 °C 34327.3 hPa NNE 11.9 km/h 11.9 km/h 65 % 0 mm
19:26 -10.8 °C -14.2 °C 34327.3 hPa ENE 9 km/h 9 km/h 66 % 0 mm
19:30 -12.2 °C -14.2 °C 34293.4 hPa WSW 5.1 km/h 5.1 km/h 79 % 0 mm
19:31 -10.8 °C -14 °C 34327.3 hPa ESE 15 km/h 15 km/h 68 % 0 mm
19:36 -10.8 °C -14 °C 34327.3 hPa ESE 15.3 km/h 15.3 km/h 68 % 0 mm
19:40 -12.3 °C -14.2 °C 34293.4 hPa SW 5.1 km/h 5.1 km/h 79 % 0 mm
19:41 -10.8 °C -14 °C 34327.3 hPa NE 11.9 km/h 11.9 km/h 68 % 0 mm
19:46 -10.9 °C -13.9 °C 34327.3 hPa ESE 11.9 km/h 11.9 km/h 69 % 0 mm
19:50 -12.3 °C -14.2 °C 34327.3 hPa SW 2.6 km/h 5.1 km/h 80 % 0 mm
19:51 -10.8 °C -13.8 °C 34327.3 hPa ENE 15.6 km/h 15.6 km/h 70 % 0 mm
19:56 -10.9 °C -13.9 °C 34327.3 hPa East 11.9 km/h 11.9 km/h 69 % 0 mm
20:00 -12.3 °C -14 °C 34327.3 hPa Calm   7.7 km/h 81 % 0 mm
20:06 -10.9 °C -13.7 °C 34327.3 hPa ENE 17.9 km/h 17.9 km/h 72 % 0 mm
20:10 -12.2 °C -13.9 °C 34327.3 hPa Calm   2.6 km/h 81 % 0 mm
20:11 -11 °C -13.6 °C 34327.3 hPa NE 15 km/h 15.6 km/h 73 % 0 mm
20:16 -11.1 °C -13.7 °C 34327.3 hPa East 20.9 km/h 20.9 km/h 73 % 0 mm
20:20 -12.2 °C -14.1 °C 34327.3 hPa Calm     80 % 0 mm
20:21 -11.1 °C -13.7 °C 34327.3 hPa ENE 20.9 km/h 20.9 km/h 73 % 0 mm
20:26 -11.1 °C -13.7 °C 34327.3 hPa ENE 15 km/h 15 km/h 73 % 0 mm
20:30 -12.3 °C -14.1 °C 34327.3 hPa SSE 2.6 km/h 5.1 km/h 80 % 0 mm
20:31 -11.2 °C -13.7 °C 34293.4 hPa ENE 11.9 km/h 11.9 km/h 74 % 0 mm
20:36 -11.2 °C -13.8 °C 34293.4 hPa NE 17.9 km/h 17.9 km/h 73 % 0 mm
20:41 -11.3 °C -13.8 °C 34293.4 hPa ENE 11.9 km/h 11.9 km/h 74 % 0 mm
20:46 -11.3 °C -13.8 °C 34293.4 hPa NE 11.9 km/h 11.9 km/h 74 % 0 mm
20:50 -12.3 °C -14.1 °C 34327.3 hPa Calm   2.6 km/h 81 % 0 mm
20:51 -11.3 °C -13.7 °C 34293.4 hPa NE 15 km/h 15 km/h 75 % 0 mm
20:56 -11.3 °C -13.8 °C 34293.4 hPa ENE 11.9 km/h 11.9 km/h 74 % 0 mm
21:00 -12.4 °C -14.3 °C 34327.3 hPa SSW 2.6 km/h 5.1 km/h 80 % 0 mm
21:01 -11.3 °C -13.7 °C 34293.4 hPa NE 15 km/h 15 km/h 75 % 0 mm
21:06 -11.3 °C -13.7 °C 34293.4 hPa NE 11.1 km/h 11.1 km/h 75 % 0 mm
21:10 -12.4 °C -14.3 °C 34327.3 hPa SW 2.6 km/h 5.1 km/h 80 % 0 mm
21:11 -11.4 °C -13.7 °C 34293.4 hPa ENE 15 km/h 15 km/h 76 % 0 mm
21:16 -11.4 °C -13.7 °C 34327.3 hPa ENE 11.9 km/h 11.9 km/h 76 % 0 mm
21:20 -12.3 °C -14.2 °C 34327.3 hPa WSW 2.6 km/h 5.1 km/h 80 % 0 mm
21:21 -11.4 °C -13.7 °C 34327.3 hPa NE 15 km/h 15 km/h 76 % 0 mm
21:26 -11.4 °C -13.7 °C 34327.3 hPa ENE 17.9 km/h 17.9 km/h 76 % 0 mm
21:30 -12.3 °C -14.1 °C 34327.3 hPa WSW 2.6 km/h 5.1 km/h 80 % 0 mm
21:31 -11.4 °C -13.7 °C 34327.3 hPa NNE 15.3 km/h 15.3 km/h 76 % 0 mm
21:36 -11.4 °C -13.6 °C 34327.3 hPa ENE 11.9 km/h 11.9 km/h 77 % 0 mm
21:40 -12.3 °C -14.2 °C 34327.3 hPa WSW 5.1 km/h 5.1 km/h 79 % 0 mm
21:41 -11.4 °C -13.6 °C 34327.3 hPa NNW 9 km/h 9 km/h 77 % 0 mm
21:46 -11.4 °C -13.7 °C 34327.3 hPa NNE 9 km/h 9 km/h 76 % 0 mm
21:50 -12.5 °C -14.3 °C 34327.3 hPa SW 2.6 km/h 5.1 km/h 80 % 0 mm
21:51 -11.4 °C -13.7 °C 34327.3 hPa ENE 6 km/h 6 km/h 76 % 0 mm
21:56 -11.4 °C -13.7 °C 34327.3 hPa NE 6 km/h 6 km/h 76 % 0 mm
22:00 -12.6 °C -14.4 °C 34327.3 hPa Calm   5.1 km/h 80 % 0 mm
22:01 -11.4 °C -13.7 °C 34327.3 hPa ENE 6 km/h 6 km/h 76 % 0 mm
22:06 -11.4 °C -13.6 °C 34327.3 hPa ENE 3.1 km/h   77 % 0 mm
22:10 -12.7 °C -14.4 °C 34327.3 hPa Calm     81 % 0 mm
22:11 -11.4 °C -13.6 °C 34327.3 hPa Calm     77 % 0 mm
22:16 -11.4 °C -13.6 °C 34327.3 hPa NNE 3.1 km/h 3.1 km/h 77 % 0 mm
22:21 -11.5 °C -13.7 °C 34327.3 hPa Calm     77 % 0 mm
22:26 -11.5 °C -13.7 °C 34327.3 hPa NNE 3.1 km/h 3.1 km/h 77 % 0 mm
22:30 -12.7 °C -14.3 °C 34293.4 hPa Calm   5.1 km/h 82 % 0 mm
22:31 -11.6 °C -13.7 °C 34327.3 hPa West 2.3 km/h   77 % 0 mm
22:36 -11.6 °C -13.7 °C 34327.3 hPa West 4.2 km/h   77 % 0 mm
22:40 -12.7 °C -14.3 °C 34293.4 hPa ENE 2.6 km/h 5.1 km/h 82 % 0 mm
22:41 -11.6 °C -13.7 °C 34327.3 hPa WNW 3.1 km/h   77 % 0 mm
22:46 -11.6 °C -13.8 °C 34327.3 hPa WNW 3.1 km/h 3.1 km/h 77 % 0 mm
22:50 -12.7 °C -14.3 °C 34293.4 hPa NE 5.1 km/h 5.1 km/h 82 % 0 mm
22:51 -11.6 °C -13.8 °C 34327.3 hPa Calm     77 % 0 mm
22:56 -11.7 °C -13.8 °C 34327.3 hPa Calm     77 % 0 mm
23:00 -12.8 °C -14.5 °C 34293.4 hPa NNE 2.6 km/h 2.6 km/h 81 % 0 mm
23:01 -11.7 °C -13.9 °C 34327.3 hPa West 6 km/h 6 km/h 76 % 0 mm
23:06 -11.8 °C -14.1 °C 34327.3 hPa WSW 6 km/h 6 km/h 76 % 0 mm
23:10 -12.8 °C -14.6 °C 34293.4 hPa NNE 2.6 km/h 5.1 km/h 81 % 0 mm
23:11 -11.8 °C -14.1 °C 34327.3 hPa SW 6 km/h 6 km/h 76 % 0 mm
23:16 -11.9 °C -14.1 °C 34293.4 hPa SW 6 km/h 6 km/h 76 % 0 mm
23:20 -12.9 °C -14.6 °C 34293.4 hPa NE 2.6 km/h 2.6 km/h 81 % 0 mm
23:21 -11.9 °C -14.1 °C 34293.4 hPa SW 3.1 km/h   77 % 0 mm
23:26 -12 °C -14.1 °C 34293.4 hPa WSW 3.1 km/h   78 % 0 mm
23:30 -13.1 °C -14.9 °C 34293.4 hPa NE 2.6 km/h 5.1 km/h 80 % 0 mm
23:31 -12 °C -14.1 °C 34327.3 hPa WSW 6 km/h 6 km/h 77 % 0 mm
23:36 -12.1 °C -14.2 °C 34327.3 hPa WSW 6 km/h 6 km/h 77 % 0 mm
23:40 -13.2 °C -14.9 °C 34293.4 hPa Calm   5.1 km/h 81 % 0 mm
23:41 -12.1 °C -14.1 °C 34327.3 hPa SW 6 km/h   78 % 0 mm
23:46 -12.1 °C -14.1 °C 34327.3 hPa SW 4.2 km/h 4.2 km/h 78 % 0 mm
23:50 -13.2 °C -14.8 °C 34293.4 hPa Calm   5.1 km/h 82 % 0 mm
23:51 -12.2 °C -14.3 °C 34327.3 hPa WSW 3.7 km/h   78 % 0 mm
23:56 -12.2 °C -14.3 °C 34327.3 hPa WSW 6 km/h 6 km/h 78 % 0 mm
Meteo Sesrovires
Elogis d' Weather Underground - 2 mb

Guio original per  Jim McMurry - jmcmurry@mwt.net Adaptat per a la plantilla per  Wim van der Kuil - Leuven-Template.eu

Trobareu la nostra informacio del temps tambe a:

Weather Underground

AWEKAS